Plevna, KS (67568)

4:17 AM CDT on July 06, 2015 (GMT -0500)
Huntsville | | Change Station
CLOSE
Current Station
Personal Weather Station
Location: Sterling, KS
Elevation: 1762 ft
Nearby Weather Stations

Elev 1762 ft 38.09 °N, 98.33 °W | Updated 7 seconds ago

Clear
Clear
77.0 °F
Feels Like 79 °F
N
7.6
Wind Variable Wind from SSW
Gusts 9.8 mph

Today
High -- | Low -- °F
--% Chance of Precip.
Yesterday
High -- | Low -- °F
Precip. -- in
6:16 AM 8:58 PM
Waning Gibbous, 77% visible
Pressure 29.77 in
Visibility 10.0 miles
Clouds Clear
Heat Index 79 °F
Dew Point 66 °F
Humidity 68%
Rainfall 0.00 in
Snow Depth Not available.
UV 0.0 out of 12
Pollen 4.40 out of 12
Air Quality Not available.
Flu Activity Not available.
METAR KHUT 060852Z AUTO 18012KT 10SM CLR 26/19 A2986 RMK AO2 SLP080 T02610189 58013

More Conditions Fewer Conditions

Pressure 29.77 in
Visibility 10.0 miles
Clouds Clear
Heat Index 79 °F
Dew Point 66 °F
Humidity 68%
Rainfall 0.00 in
Snow Depth Not available.
UV 0.0 out of 12
Pollen 4.40 out of 12
Air Quality Not available.
Flu Activity Not available.
METAR KHUT 060852Z AUTO 18012KT 10SM CLR 26/19 A2986 RMK AO2 SLP080 T02610189 58013

More Conditions Fewer Conditions

10-Day Weather Forecast

×

Almanac

Astronomy

Jul. 06, 2015 Rise Set
Actual Time
Civil Twilight
Nautical Twilight
Astronomical Twilight
Moon
Length of Visible Light
Length of Day
Tomorrow will be .
, % of the Moon is Illuminated

Today's Extremes

State Highs State Lows

Community

WunderPhotos

Upload Photos

1,835,520 photos uploaded!

WunderBlogs® & News

Nearby

Air Quality

  Air Quality AQ Index Pollutant
Not available.

Snow Depth

Station Depth Elevation

Earthquake Activity

City Distance Mag. Time & Date
Minimum magnitude displayed is 2.5.

Coastal Water Temperatures

Place Temperature

Stations

Nearby Weather Stations

Station Location Temp. Windchill Dew Point Humidity Wind Precip. Elev Updated Type